createdAt,value
2023-03-04T00:01:50.368Z,23.3
2023-03-04T00:07:43.003Z,23.6
2023-03-04T00:13:36.051Z,23.2
2023-03-04T00:19:15.787Z,22.8
2023-03-04T00:24:53.519Z,22.6
2023-03-04T00:30:46.128Z,22.6
2023-03-04T00:36:39.121Z,22.7
2023-03-04T00:42:16.082Z,23.4
2023-03-04T00:47:38.792Z,23.5
2023-03-04T00:53:30.561Z,23.1
2023-03-04T00:59:07.187Z,22.8
2023-03-04T01:04:44.881Z,22.6
2023-03-04T01:10:22.424Z,22.6
2023-03-04T01:15:59.768Z,22.6
2023-03-04T01:21:21.217Z,23.3
2023-03-04T01:26:58.690Z,23.4
2023-03-04T01:32:36.150Z,23.1
2023-03-04T01:37:57.833Z,22.8
2023-03-04T01:43:35.158Z,22.6
2023-03-04T01:49:00.633Z,22.5
2023-03-04T01:54:22.238Z,22.6
2023-03-04T01:59:44.134Z,23.1
2023-03-04T02:05:06.052Z,23.4
2023-03-04T02:10:43.652Z,23.1
2023-03-04T02:15:50.728Z,22.8
2023-03-04T02:21:13.218Z,22.6
2023-03-04T02:26:49.923Z,22.5
2023-03-04T02:32:27.732Z,22.3
2023-03-04T02:38:05.051Z,22.4
2023-03-04T02:43:42.065Z,23.1
2023-03-04T02:49:18.494Z,23.4
2023-03-04T02:54:55.668Z,23.1
2023-03-04T03:00:02.004Z,22.7
2023-03-04T03:05:55.131Z,22.5
2023-03-04T03:11:33.289Z,22.3
2023-03-04T03:16:56.805Z,22.3
2023-03-04T03:22:34.111Z,22.6
2023-03-04T03:28:11.002Z,23.3
2023-03-04T03:33:48.363Z,23.4
2023-03-04T03:39:26.330Z,22.9
2023-03-04T03:44:47.705Z,22.6
2023-03-04T03:50:10.596Z,22.4
2023-03-04T03:55:48.516Z,22.3
2023-03-04T04:01:25.757Z,22.3
2023-03-04T04:07:03.918Z,22.8
2023-03-04T04:12:40.789Z,23.4
2023-03-04T04:18:18.328Z,23.2
2023-03-04T04:23:43.768Z,22.8
2023-03-04T04:29:21.222Z,22.5
2023-03-04T04:34:27.566Z,22.4
2023-03-04T04:40:04.807Z,22.2
2023-03-04T04:45:27.338Z,22.4
2023-03-04T04:51:05.971Z,22.9
2023-03-04T04:56:58.408Z,23.5
2023-03-04T05:02:35.115Z,23.2
2023-03-04T05:08:12.921Z,22.8
2023-03-04T05:13:50.054Z,22.6
2023-03-04T05:19:42.573Z,22.3
2023-03-04T05:25:19.236Z,22.3
2023-03-04T05:30:56.393Z,22.5
2023-03-04T05:36:34.829Z,23.2
2023-03-04T05:42:11.983Z,23.4
2023-03-04T05:47:48.940Z,23.1
2023-03-04T05:53:41.466Z,22.7
2023-03-04T05:59:34.128Z,22.4
2023-03-04T06:05:27.076Z,22.2
2023-03-04T06:11:04.219Z,22.3
2023-03-04T06:16:57.218Z,22.8
2023-03-04T06:22:49.291Z,23.4
2023-03-04T06:28:44.262Z,23.1
2023-03-04T06:34:21.952Z,22.6
2023-03-04T06:40:14.703Z,22.4
2023-03-04T06:46:08.423Z,22.2
2023-03-04T06:51:45.412Z,22.1
2023-03-04T06:57:38.279Z,22.4
2023-03-04T07:03:30.459Z,23.1
2023-03-04T07:09:22.208Z,23.2
2023-03-04T07:15:14.970Z,22.8
2023-03-04T07:21:08.884Z,22.4
2023-03-04T07:27:00.731Z,22.3
2023-03-04T07:32:53.878Z,22.1
2023-03-04T07:38:45.991Z,22.4
2023-03-04T07:44:38.921Z,23
2023-03-04T07:50:34.361Z,23.2
2023-03-04T07:56:27.302Z,22.9
2023-03-04T08:02:19.412Z,22.7
2023-03-04T08:08:11.963Z,22.5
2023-03-04T08:14:04.620Z,23
2023-03-04T08:19:58.853Z,23.3
2023-03-04T08:25:36.374Z,22.9
2023-03-04T08:31:13.188Z,22.8
2023-03-04T08:37:09.744Z,22.6
2023-03-04T08:42:49.126Z,23.1
2023-03-04T08:48:42.045Z,23.3
2023-03-04T08:54:35.853Z,23
2023-03-04T09:00:28.293Z,22.8
2023-03-04T09:06:20.683Z,22.6
2023-03-04T09:12:13.212Z,23.2
2023-03-04T09:18:15.773Z,23.3
2023-03-04T09:24:09.337Z,23
2023-03-04T09:30:01.954Z,22.8
2023-03-04T09:35:55.134Z,22.7
2023-03-04T09:41:32.114Z,23.3
2023-03-04T09:47:25.610Z,23.3
2023-03-04T09:53:20.934Z,23
2023-03-04T09:59:17.880Z,22.8
2023-03-04T10:05:11.347Z,22.6
2023-03-04T10:11:03.534Z,23
2023-03-04T10:16:56.984Z,23.4
2023-03-04T10:22:49.981Z,23.1
2023-03-04T10:28:30.059Z,22.9
2023-03-04T10:34:23.287Z,22.7
2023-03-04T10:40:15.527Z,22.6
2023-03-04T10:46:08.567Z,23
2023-03-04T10:52:02.085Z,22.8
2023-03-04T10:57:38.760Z,22.6
2023-03-04T11:03:33.663Z,22.5
2023-03-04T11:09:36.470Z,22.4
2023-03-04T11:15:28.520Z,22.3
2023-03-04T11:21:20.677Z,22.3
2023-03-04T11:27:29.767Z,22.7
2023-03-04T11:33:22.667Z,22.7
2023-03-04T11:39:15.911Z,22.5
2023-03-04T11:45:18.419Z,22.4
2023-03-04T11:51:18.835Z,22.3
2023-03-04T11:57:12.835Z,22.2
2023-03-04T12:03:06.058Z,22.1
2023-03-04T12:08:59.765Z,22.5
2023-03-04T12:14:39.359Z,22.6
2023-03-04T12:20:32.386Z,22.4
2023-03-04T12:26:09.728Z,22.3
2023-03-04T12:32:07.551Z,22.2
2023-03-04T12:37:45.645Z,22.2
2023-03-04T12:43:22.464Z,22.1
2023-03-04T12:49:15.599Z,22.1
2023-03-04T12:55:10.694Z,22.6
2023-03-04T13:01:03.311Z,22.4
2023-03-04T13:06:26.675Z,22.3
2023-03-04T13:12:22.168Z,22.1
2023-03-04T13:18:01.693Z,22
2023-03-04T13:23:55.339Z,22.4
2023-03-04T13:29:49.159Z,22.4
2023-03-04T13:35:44.419Z,22.3
2023-03-04T13:41:24.798Z,22.1
2023-03-04T13:47:18.350Z,22.1
2023-03-04T13:53:24.247Z,22.1
2023-03-04T13:59:20.986Z,21.9
2023-03-04T14:05:14.713Z,21.9
2023-03-04T14:10:53.145Z,22.5
2023-03-04T14:16:45.712Z,22.3
2023-03-04T14:22:39.332Z,22.1
2023-03-04T14:28:16.240Z,22
2023-03-04T14:34:19.628Z,22.1
2023-03-04T14:40:11.732Z,22.5
2023-03-04T14:46:03.448Z,22.3
2023-03-04T14:52:09.417Z,22.1
2023-03-04T14:58:01.199Z,22.1
2023-03-04T15:03:54.611Z,22.6
2023-03-04T15:09:47.787Z,22.4
2023-03-04T15:15:40.527Z,22.2
2023-03-04T15:21:17.948Z,22.1
2023-03-04T15:27:10.437Z,22
2023-03-04T15:33:05.115Z,21.9
2023-03-04T15:38:57.325Z,21.9
2023-03-04T15:44:49.101Z,21.9
2023-03-04T15:50:29.777Z,21.8
2023-03-04T15:56:08.227Z,21.7
2023-03-04T16:02:00.880Z,21.8
2023-03-04T16:07:53.510Z,22.4
2023-03-04T16:13:45.643Z,23.4
2023-03-04T16:19:38.470Z,24.1
2023-03-04T16:25:30.870Z,24.6
2023-03-04T16:31:23.873Z,24.9
2023-03-04T16:37:03.098Z,25.3
2023-03-04T16:42:56.026Z,25.8
2023-03-04T16:48:33.576Z,26.2
2023-03-04T16:54:28.040Z,26.6
2023-03-04T17:00:20.432Z,26.9
2023-03-04T17:06:15.734Z,27.1
2023-03-04T17:11:52.903Z,27.3
2023-03-04T17:17:30.542Z,27.6
2023-03-04T17:23:22.091Z,27.7
2023-03-04T17:34:52.360Z,27.9
2023-03-04T17:40:28.905Z,27.9
2023-03-04T17:46:21.801Z,28
2023-03-04T17:51:58.845Z,28.1
2023-03-04T17:57:50.625Z,28.1
2023-03-04T18:03:27.629Z,28.3
2023-03-04T18:09:04.882Z,28.4
2023-03-04T18:14:57.552Z,28.6
2023-03-04T18:20:33.789Z,28.6
2023-03-04T18:25:55.327Z,28.7
2023-03-04T18:31:32.374Z,28.8
2023-03-04T18:37:22.116Z,28.8
2023-03-04T18:43:14.536Z,28.9
2023-03-04T18:49:07.610Z,28.9
2023-03-04T18:55:00.411Z,29.2
2023-03-04T19:00:52.587Z,29.3
2023-03-04T19:06:45.134Z,29.4
2023-03-04T19:12:21.352Z,29.4
2023-03-04T19:18:00.669Z,29.5
2023-03-04T19:23:37.517Z,29.6
2023-03-04T19:29:14.963Z,29.6
2023-03-04T19:35:07.572Z,29.7
2023-03-04T19:40:28.907Z,29.9
2023-03-04T19:45:51.149Z,30
2023-03-04T19:51:28.495Z,30.1
2023-03-04T19:57:05.608Z,30.2
2023-03-04T20:02:43.221Z,30.3
2023-03-04T20:08:04.837Z,30.3
2023-03-04T20:13:21.940Z,30.3
2023-03-04T20:18:59.508Z,30.3
2023-03-04T20:24:21.675Z,30.3
2023-03-04T20:29:59.120Z,30.2
2023-03-04T20:35:37.488Z,30.2
2023-03-04T20:41:25.900Z,30.2
2023-03-04T20:47:18.097Z,30.1
2023-03-04T20:52:54.865Z,30.1
2023-03-04T20:58:01.266Z,30.1
2023-03-04T21:03:38.115Z,30
2023-03-04T21:09:30.755Z,29.9
2023-03-04T21:15:24.009Z,29.8
2023-03-04T21:21:17.042Z,29.7
2023-03-04T21:27:13.075Z,29.6
2023-03-04T21:33:05.129Z,29.4
2023-03-04T21:38:42.632Z,29.3
2023-03-04T21:44:27.489Z,29.1
2023-03-04T21:50:13.110Z,28.9
2023-03-04T21:55:50.572Z,28.8
2023-03-04T22:01:13.858Z,28.6
2023-03-04T22:07:05.772Z,28.4
2023-03-04T22:12:42.884Z,28.2
2023-03-04T22:18:16.779Z,28
2023-03-04T22:23:38.960Z,27.9
2023-03-04T22:29:15.895Z,27.8
2023-03-04T22:34:23.771Z,27.6
2023-03-04T22:39:45.296Z,27.4
2023-03-04T22:45:07.259Z,27.3
2023-03-04T22:50:28.997Z,26.9
2023-03-04T22:56:06.431Z,26.4
2023-03-04T23:01:59.073Z,26
2023-03-04T23:07:50.932Z,25.7
2023-03-04T23:13:43.941Z,26.3
2023-03-04T23:19:36.701Z,26.4
2023-03-04T23:25:13.706Z,25.9
2023-03-04T23:31:07.372Z,25.7
2023-03-04T23:37:00.020Z,25.5
2023-03-04T23:42:52.556Z,25.3
2023-03-04T23:48:45.528Z,25.1
2023-03-04T23:54:22.699Z,24.9
2023-03-04T23:59:59.841Z,25.1
